Time;durP1;ratioP1;P1;durP2;ratioP2;P2;SDS_P1;SDS_P2;PMS_P1;PMS_P2;Temp;Humidity;BMP_temperature;BMP_pressure;BME280_temperature;BME280_humidity;BME280_pressure;Samples;Min_cycle;Max_cycle;Signal;HPM_P1;HPM_P2
2022/04/15 00:02:10;;;;;;;14.80;6.47;;;13.30;64.40;;;;;;5134593;28;20016;-67
2022/04/15 00:04:36;;;;;;;11.40;5.95;;;13.30;64.10;;;;;;5134650;28;20510;-68
2022/04/15 00:07:02;;;;;;;11.30;6.57;;;13.00;63.90;;;;;;5134515;28;20054;-67
2022/04/15 00:09:30;;;;;;;14.20;6.38;;;12.70;64.40;;;;;;5134503;28;20038;-67
2022/04/15 00:11:57;;;;;;;12.57;6.65;;;12.60;65.30;;;;;;5134365;28;20031;-68
2022/04/15 00:14:23;;;;;;;11.70;6.07;;;12.70;65.20;;;;;;5134368;27;20012;-68
2022/04/15 00:16:49;;;;;;;11.82;6.50;;;12.50;64.80;;;;;;5134339;28;20041;-68
2022/04/15 00:19:15;;;;;;;13.15;6.75;;;12.40;65.90;;;;;;5134276;28;20020;-68
2022/04/15 00:21:41;;;;;;;13.00;6.43;;;12.40;66.10;;;;;;5134243;28;20113;-68
2022/04/15 00:24:07;;;;;;;10.95;6.47;;;12.40;66.40;;;;;;5134171;28;20031;-67
2022/04/15 00:26:33;;;;;;;11.00;6.35;;;12.40;65.90;;;;;;5134162;28;20024;-67
2022/04/15 00:28:58;;;;;;;15.23;7.07;;;12.40;65.70;;;;;;5134102;28;20051;-68
2022/04/15 00:31:24;;;;;;;14.32;6.85;;;12.40;65.90;;;;;;5134032;28;20046;-68
2022/04/15 00:33:50;;;;;;;14.52;7.13;;;12.40;65.80;;;;;;5134212;28;20039;-68
2022/04/15 00:36:15;;;;;;;14.27;7.18;;;12.50;66.00;;;;;;5134012;28;20024;-68
2022/04/15 00:38:41;;;;;;;12.02;6.95;;;12.50;66.10;;;;;;5133877;28;20023;-68
2022/04/15 00:41:12;;;;;;;15.40;6.63;;;12.60;66.30;;;;;;5133941;28;20028;-69
2022/04/15 00:43:38;;;;;;;14.52;6.97;;;12.60;65.90;;;;;;5133809;28;20525;-67
2022/04/15 00:46:08;;;;;;;12.90;7.28;;;12.60;65.60;;;;;;5133880;28;20043;-68
2022/04/15 00:48:35;;;;;;;14.18;6.68;;;12.50;65.70;;;;;;5133872;28;20047;-67
2022/04/15 00:51:01;;;;;;;17.17;7.13;;;12.50;65.70;;;;;;5133812;28;20035;-68
2022/04/15 00:53:29;;;;;;;13.75;6.70;;;12.40;66.00;;;;;;5133830;28;20047;-67
2022/04/15 00:55:57;;;;;;;13.30;6.82;;;12.40;65.80;;;;;;5133808;28;20087;-67
2022/04/15 00:58:25;;;;;;;13.55;7.60;;;12.30;66.10;;;;;;5133935;28;20044;-67
2022/04/15 01:00:54;;;;;;;13.05;7.47;;;12.00;66.40;;;;;;5133775;28;20158;-67
2022/04/15 01:03:21;;;;;;;13.60;7.40;;;11.90;66.80;;;;;;5133735;28;20032;-67
2022/04/15 01:05:51;;;;;;;15.63;7.10;;;12.00;67.00;;;;;;5133721;28;20039;-67
2022/04/15 01:08:21;;;;;;;15.35;7.78;;;12.00;67.00;;;;;;5133759;28;20031;-67
2022/04/15 01:10:48;;;;;;;11.77;6.63;;;11.90;66.90;;;;;;5133885;28;20045;-67
2022/04/15 01:13:14;;;;;;;16.30;7.50;;;11.90;67.10;;;;;;5133612;28;20039;-67
2022/04/15 01:15:40;;;;;;;13.38;7.35;;;11.70;67.50;;;;;;5133674;28;20027;-67
2022/04/15 01:18:06;;;;;;;15.55;7.47;;;11.70;67.90;;;;;;5133560;28;20016;-67
2022/04/15 01:20:32;;;;;;;16.52;7.55;;;11.60;68.40;;;;;;5133406;28;20369;-68
2022/04/15 01:23:08;;;;;;;13.88;7.78;;;11.60;68.60;;;;;;5133529;28;20035;-68
2022/04/15 01:25:34;;;;;;;14.30;7.85;;;11.70;68.50;;;;;;5133544;28;20027;-68
2022/04/15 01:28:00;;;;;;;13.85;7.68;;;11.70;68.30;;;;;;5133421;28;20053;-67
2022/04/15 01:30:26;;;;;;;14.63;7.20;;;11.70;67.90;;;;;;5133490;28;20028;-67
2022/04/15 01:32:52;;;;;;;11.82;6.70;;;11.50;67.70;;;;;;5133388;28;20050;-67
2022/04/15 01:35:19;;;;;;;13.35;6.95;;;11.50;68.30;;;;;;5133461;28;20016;-67
2022/04/15 01:37:47;;;;;;;12.80;7.50;;;11.40;68.40;;;;;;5133403;28;20023;-67
2022/04/15 01:40:14;;;;;;;14.95;7.35;;;11.50;68.60;;;;;;5133414;28;20045;-68
2022/04/15 01:42:41;;;;;;;15.45;8.55;;;11.60;68.60;;;;;;5133164;28;20027;-68
2022/04/15 01:45:08;;;;;;;14.70;7.85;;;11.50;68.60;;;;;;5133561;28;20024;-67
2022/04/15 01:47:33;;;;;;;18.10;8.93;;;11.70;68.60;;;;;;5133254;28;20039;-67
2022/04/15 01:49:59;;;;;;;17.10;8.55;;;11.70;68.40;;;;;;5135580;28;20079;-68
2022/04/15 01:52:26;;;;;;;16.05;8.32;;;11.70;68.40;;;;;;5137028;28;20042;-68
2022/04/15 01:54:52;;;;;;;15.45;8.32;;;11.70;67.90;;;;;;5137122;28;20027;-67
2022/04/15 01:57:17;;;;;;;17.45;8.82;;;11.50;67.90;;;;;;5137105;28;20020;-67
2022/04/15 01:59:43;;;;;;;17.48;8.35;;;11.20;68.40;;;;;;5136990;28;20030;-67
2022/04/15 02:02:09;;;;;;;17.63;8.48;;;11.20;69.10;;;;;;5136938;28;20391;-67
2022/04/15 02:04:35;;;;;;;15.73;8.57;;;11.30;69.10;;;;;;5136928;28;20027;-68
2022/04/15 02:07:01;;;;;;;17.95;9.02;;;11.40;68.80;;;;;;5136881;28;20054;-67
2022/04/15 02:09:27;;;;;;;17.27;9.02;;;11.40;68.70;;;;;;5136791;28;20020;-68
2022/04/15 02:11:53;;;;;;;19.15;9.35;;;11.50;68.80;;;;;;5136775;28;20032;-67
2022/04/15 02:14:19;;;;;;;19.35;9.10;;;11.60;69.50;;;;;;5136711;28;20020;-67
2022/04/15 02:16:46;;;;;;;17.77;8.38;;;11.60;68.30;;;;;;5136646;28;20076;-68
2022/04/15 02:19:12;;;;;;;16.95;8.82;;;11.70;68.00;;;;;;5136609;28;20091;-67
2022/04/15 02:21:37;;;;;;;14.85;8.60;;;11.70;67.90;;;;;;5136572;28;20028;-67
2022/04/15 02:24:03;;;;;;;15.80;9.02;;;11.60;67.80;;;;;;5136464;28;20058;-67
2022/04/15 02:26:29;;;;;;;15.30;8.80;;;11.50;68.10;;;;;;5136435;28;20023;-68
2022/04/15 02:28:55;;;;;;;15.95;8.95;;;11.50;67.90;;;;;;5135453;28;20045;-68
2022/04/15 02:31:21;;;;;;;16.08;8.68;;;11.60;67.70;;;;;;5136301;28;20042;-67
2022/04/15 02:33:46;;;;;;;14.15;8.25;;;11.50;67.80;;;;;;5136342;28;20023;-68
2022/04/15 02:36:13;;;;;;;17.17;8.30;;;11.50;67.70;;;;;;5136287;28;20030;-68
2022/04/15 02:38:38;;;;;;;13.80;8.30;;;11.50;67.80;;;;;;5136207;28;20016;-68
2022/04/15 02:41:05;;;;;;;16.70;8.82;;;11.50;68.00;;;;;;5136190;28;20070;-67
2022/04/15 02:43:35;;;;;;;13.68;8.23;;;11.40;68.10;;;;;;5134983;28;20040;-68
2022/04/15 02:46:06;;;;;;;20.45;10.07;;;11.30;68.30;;;;;;5136138;28;20087;-68
2022/04/15 02:48:32;;;;;;;17.88;9.75;;;11.30;68.60;;;;;;5136144;28;20080;-68
2022/04/15 02:50:59;;;;;;;14.95;8.52;;;11.20;68.40;;;;;;5135984;28;20032;-68
2022/04/15 02:53:25;;;;;;;16.40;9.43;;;11.10;68.00;;;;;;5135966;28;20024;-67
2022/04/15 02:55:52;;;;;;;21.60;9.68;;;11.00;68.60;;;;;;5135938;28;20110;-67
2022/04/15 02:58:18;;;;;;;18.73;9.57;;;11.10;68.70;;;;;;5135994;28;20027;-67
2022/04/15 03:00:44;;;;;;;19.83;9.40;;;11.20;69.20;;;;;;5134703;28;20031;-67
2022/04/15 03:03:10;;;;;;;19.08;9.88;;;11.10;68.00;;;;;;5135771;28;20028;-67
2022/04/15 03:05:36;;;;;;;18.65;9.95;;;11.10;67.90;;;;;;5135740;28;20016;-68
2022/04/15 03:08:02;;;;;;;19.50;9.77;;;11.10;68.30;;;;;;5135655;28;20030;-67
2022/04/15 03:10:27;;;;;;;20.77;10.10;;;11.00;68.30;;;;;;5135651;28;20030;-67
2022/04/15 03:12:54;;;;;;;16.73;9.73;;;11.00;68.60;;;;;;5135489;28;20027;-67
2022/04/15 03:15:19;;;;;;;16.13;9.25;;;10.90;68.50;;;;;;5135570;28;20026;-68
2022/04/15 03:17:45;;;;;;;21.40;10.23;;;11.00;68.20;;;;;;5134530;28;20051;-67
2022/04/15 03:20:11;;;;;;;18.73;8.98;;;11.00;68.10;;;;;;5135531;28;20041;-67
2022/04/15 03:22:41;;;;;;;17.55;9.45;;;10.90;67.50;;;;;;5135338;28;20073;-67
2022/04/15 03:25:09;;;;;;;17.20;9.23;;;10.70;67.90;;;;;;5135648;28;20161;-67
2022/04/15 03:27:35;;;;;;;17.67;9.63;;;10.60;68.60;;;;;;5135193;28;20015;-67
2022/04/15 03:30:01;;;;;;;20.38;9.82;;;10.60;68.80;;;;;;5135196;28;20042;-67
2022/04/15 03:32:27;;;;;;;17.38;9.13;;;10.70;68.30;;;;;;5135116;27;20084;-68
2022/04/15 03:34:56;;;;;;;16.20;9.93;;;10.80;68.10;;;;;;5135124;28;20024;-68
2022/04/15 03:37:22;;;;;;;17.10;9.95;;;10.80;68.00;;;;;;5135122;28;20028;-68
2022/04/15 03:39:48;;;;;;;18.25;9.70;;;10.90;68.30;;;;;;5135152;28;20024;-68
2022/04/15 03:42:13;;;;;;;16.80;9.07;;;10.90;68.40;;;;;;5134968;28;20019;-68
2022/04/15 03:44:39;;;;;;;18.67;9.68;;;10.90;68.70;;;;;;5134727;28;20039;-68
2022/04/15 03:47:05;;;;;;;22.33;11.40;;;10.90;69.10;;;;;;5134875;28;20028;-67
2022/04/15 03:49:32;;;;;;;23.63;11.88;;;10.90;70.10;;;;;;5133975;28;20023;-67
2022/04/15 03:51:57;;;;;;;20.15;11.85;;;11.00;71.40;;;;;;5134758;28;20032;-67
2022/04/15 03:54:23;;;;;;;22.35;11.50;;;11.00;72.20;;;;;;5134777;28;20027;-68
2022/04/15 03:56:49;;;;;;;22.60;12.10;;;11.10;72.50;;;;;;5134704;28;20031;-68
2022/04/15 03:59:14;;;;;;;21.08;11.32;;;11.20;72.90;;;;;;5134672;28;20035;-67
2022/04/15 04:01:40;;;;;;;20.52;11.32;;;11.30;73.20;;;;;;5134601;28;20034;-67
2022/04/15 04:04:06;;;;;;;33.70;13.15;;;11.30;73.40;;;;;;5134616;28;20031;-68
2022/04/15 04:06:32;;;;;;;24.88;12.95;;;11.30;74.30;;;;;;5133480;28;20035;-68
2022/04/15 04:08:58;;;;;;;21.65;12.18;;;11.30;73.80;;;;;;5134475;28;20028;-68
2022/04/15 04:11:23;;;;;;;25.58;13.50;;;11.40;73.90;;;;;;5134048;28;20055;-67
2022/04/15 04:13:49;;;;;;;21.70;12.27;;;11.40;73.90;;;;;;5134184;28;20031;-68
2022/04/15 04:16:16;;;;;;;23.55;12.32;;;11.40;74.00;;;;;;5134445;28;20027;-68
2022/04/15 04:18:43;;;;;;;25.40;12.20;;;11.40;74.20;;;;;;5134336;28;20049;-68
2022/04/15 04:21:09;;;;;;;21.00;10.90;;;11.40;74.20;;;;;;5134294;28;20054;-67
2022/04/15 04:23:35;;;;;;;19.80;10.63;;;11.40;74.50;;;;;;5134290;28;20028;-67
2022/04/15 04:26:01;;;;;;;17.40;10.88;;;11.40;74.80;;;;;;5134241;28;20054;-68
2022/04/15 04:28:27;;;;;;;18.92;10.07;;;11.30;74.80;;;;;;5134142;28;20084;-68
2022/04/15 04:30:53;;;;;;;17.67;9.93;;;11.30;74.80;;;;;;5134070;28;20038;-67
2022/04/15 04:33:19;;;;;;;18.10;9.75;;;11.30;76.00;;;;;;5134211;28;20055;-68
2022/04/15 04:35:45;;;;;;;16.70;10.27;;;11.30;75.10;;;;;;5134047;28;20028;-68
2022/04/15 04:38:10;;;;;;;28.45;13.23;;;11.20;75.00;;;;;;5134064;28;20027;-68
2022/04/15 04:40:36;;;;;;;31.05;15.18;;;11.20;75.00;;;;;;5133977;28;20019;-68
2022/04/15 04:43:04;;;;;;;36.47;17.80;;;11.20;74.90;;;;;;5133794;28;20454;-68
2022/04/15 04:45:30;;;;;;;37.40;17.27;;;11.10;75.10;;;;;;5133990;28;20036;-68
2022/04/15 04:47:58;;;;;;;37.05;17.63;;;11.00;75.00;;;;;;5133963;28;20048;-68
2022/04/15 04:50:24;;;;;;;41.17;19.08;;;11.00;75.30;;;;;;5133916;28;20027;-68
2022/04/15 04:52:49;;;;;;;42.63;18.67;;;11.00;75.40;;;;;;5133770;28;20031;-68
2022/04/15 04:55:15;;;;;;;45.10;19.20;;;10.90;75.90;;;;;;5133796;28;20483;-68
2022/04/15 04:57:44;;;;;;;32.33;15.45;;;10.80;75.90;;;;;;5133785;28;20035;-68
2022/04/15 05:00:11;;;;;;;26.52;13.18;;;10.90;76.00;;;;;;5133823;28;20016;-68
2022/04/15 05:02:37;;;;;;;21.48;11.48;;;10.90;76.20;;;;;;5133756;28;20034;-68
2022/04/15 05:05:03;;;;;;;21.88;11.75;;;10.80;77.10;;;;;;5133731;28;20041;-68
2022/04/15 05:07:29;;;;;;;19.88;11.18;;;10.80;76.40;;;;;;5133762;28;20039;-68
2022/04/15 05:09:55;;;;;;;19.45;11.05;;;10.90;76.50;;;;;;5133677;28;20035;-68
2022/04/15 05:12:21;;;;;;;19.23;10.52;;;10.90;76.40;;;;;;5133725;28;20032;-67
2022/04/15 05:14:46;;;;;;;17.35;9.80;;;10.90;76.30;;;;;;5133596;28;20035;-67
2022/04/15 05:17:12;;;;;;;18.10;9.77;;;10.90;76.40;;;;;;5133585;28;20080;-67
2022/04/15 05:19:37;;;;;;;20.75;11.30;;;10.90;76.50;;;;;;5133584;28;20020;-67
2022/04/15 05:22:03;;;;;;;19.45;9.82;;;11.00;76.50;;;;;;5133560;28;20024;-67
2022/04/15 05:24:29;;;;;;;19.10;10.27;;;11.00;76.40;;;;;;5135107;28;20066;-67
2022/04/15 05:26:54;;;;;;;19.65;10.23;;;11.00;76.40;;;;;;5137656;28;20035;-68
2022/04/15 05:29:21;;;;;;;17.75;9.65;;;11.00;76.50;;;;;;5137548;28;20031;-67
2022/04/15 05:31:46;;;;;;;17.08;9.05;;;11.00;76.70;;;;;;5137512;28;20020;-68
2022/04/15 05:34:12;;;;;;;16.85;8.88;;;11.10;76.60;;;;;;5137679;28;20375;-68
2022/04/15 05:36:38;;;;;;;18.63;9.20;;;11.10;76.50;;;;;;5137492;28;20020;-68
2022/04/15 05:39:03;;;;;;;17.98;9.50;;;11.20;76.50;;;;;;5137513;28;20051;-68
2022/04/15 05:41:29;;;;;;;17.75;9.50;;;11.20;76.30;;;;;;5137301;28;20038;-67
2022/04/15 05:43:55;;;;;;;18.15;9.20;;;11.30;76.40;;;;;;5137126;28;20054;-68
2022/04/15 05:46:21;;;;;;;17.23;9.07;;;11.30;76.30;;;;;;5136362;28;20023;-68
2022/04/15 05:48:47;;;;;;;18.77;9.23;;;11.30;76.40;;;;;;5137228;28;20028;-68
2022/04/15 05:51:12;;;;;;;17.83;9.05;;;11.30;76.40;;;;;;5137027;28;20035;-67
2022/04/15 05:53:38;;;;;;;14.50;8.43;;;11.30;76.40;;;;;;5137130;28;20031;-67
2022/04/15 05:56:04;;;;;;;15.07;7.80;;;11.20;76.80;;;;;;5137117;28;20027;-67
2022/04/15 05:58:29;;;;;;;16.23;7.80;;;11.20;76.70;;;;;;5137160;28;20027;-67
2022/04/15 06:00:56;;;;;;;14.63;8.25;;;11.20;76.80;;;;;;5136982;28;20027;-67
2022/04/15 06:03:22;;;;;;;15.00;8.50;;;11.20;76.90;;;;;;5136935;28;20023;-67
2022/04/15 06:05:49;;;;;;;15.18;9.18;;;11.20;76.80;;;;;;5136922;28;20111;-67
2022/04/15 06:08:15;;;;;;;20.50;10.18;;;11.30;76.80;;;;;;5136831;28;20023;-68
2022/04/15 06:10:41;;;;;;;19.02;9.68;;;11.30;76.70;;;;;;5136755;28;20024;-68
2022/04/15 06:13:10;;;;;;;20.50;9.90;;;11.40;76.80;;;;;;5136777;28;20027;-68
2022/04/15 06:15:41;;;;;;;25.60;10.15;;;11.40;76.70;;;;;;5136886;28;20020;-68
2022/04/15 06:18:08;;;;;;;20.92;9.82;;;11.50;76.60;;;;;;5136882;28;20028;-68
2022/04/15 06:20:34;;;;;;;20.33;10.40;;;11.50;76.80;;;;;;5136646;28;20016;-68
2022/04/15 06:23:00;;;;;;;18.15;9.20;;;11.50;76.80;;;;;;5136620;28;20019;-68
2022/04/15 06:25:27;;;;;;;20.38;10.00;;;11.60;77.20;;;;;;5136506;28;20049;-68
2022/04/15 06:27:54;;;;;;;20.00;10.18;;;11.60;76.90;;;;;;5136446;27;20027;-68
2022/04/15 06:30:21;;;;;;;20.50;9.75;;;11.60;76.70;;;;;;5135427;28;20031;-68
2022/04/15 06:32:47;;;;;;;17.52;9.43;;;11.70;76.80;;;;;;5136353;28;20050;-67
2022/04/15 06:35:13;;;;;;;17.00;9.57;;;11.70;76.90;;;;;;5135940;28;20020;-68
2022/04/15 06:37:38;;;;;;;21.05;9.68;;;11.70;76.70;;;;;;5136265;28;20027;-68
2022/04/15 06:40:04;;;;;;;19.15;9.30;;;11.80;76.60;;;;;;5136143;28;20069;-67
2022/04/15 06:42:30;;;;;;;16.17;9.30;;;11.80;76.30;;;;;;5136146;28;20028;-68
2022/04/15 06:44:58;;;;;;;16.60;8.77;;;11.80;75.90;;;;;;5136035;28;20039;-68
2022/04/15 06:47:23;;;;;;;16.58;8.10;;;11.90;75.80;;;;;;5136004;28;20028;-68
2022/04/15 06:49:49;;;;;;;12.40;7.10;;;11.90;75.50;;;;;;5136037;28;20037;-68
2022/04/15 06:52:15;;;;;;;14.43;6.95;;;11.90;74.90;;;;;;5135964;28;20028;-68
2022/04/15 06:54:41;;;;;;;10.43;6.25;;;11.90;74.40;;;;;;5135948;28;20024;-68
2022/04/15 06:57:07;;;;;;;13.00;6.22;;;11.90;74.10;;;;;;5135884;27;20020;-68
2022/04/15 06:59:33;;;;;;;12.70;5.93;;;11.80;73.70;;;;;;5135841;28;20048;-68
2022/04/15 07:02:00;;;;;;;11.35;5.63;;;11.80;73.40;;;;;;5135783;28;20032;-67
2022/04/15 07:04:27;;;;;;;9.55;5.78;;;11.80;74.20;;;;;;5135898;28;20020;-67
2022/04/15 07:06:53;;;;;;;11.00;5.93;;;11.80;72.80;;;;;;5135738;28;20024;-67
2022/04/15 07:09:18;;;;;;;9.52;5.80;;;11.80;73.70;;;;;;5135663;28;20030;-67
2022/04/15 07:11:44;;;;;;;10.55;5.65;;;11.80;72.70;;;;;;5135509;28;20039;-67
2022/04/15 07:14:09;;;;;;;9.38;5.65;;;11.80;72.80;;;;;;5135515;28;20028;-67
2022/04/15 07:16:35;;;;;;;11.38;5.80;;;11.80;72.80;;;;;;5135510;28;20028;-67
2022/04/15 07:19:04;;;;;;;10.50;6.03;;;11.80;72.60;;;;;;5135414;28;20031;-67
2022/04/15 07:21:31;;;;;;;8.80;5.80;;;11.90;72.60;;;;;;5135453;28;20027;-67
2022/04/15 07:23:57;;;;;;;9.13;5.60;;;11.90;73.40;;;;;;5135396;28;20045;-67
2022/04/15 07:26:23;;;;;;;11.45;6.25;;;12.00;72.50;;;;;;5135351;28;20034;-68
2022/04/15 07:28:48;;;;;;;9.35;5.40;;;12.00;72.50;;;;;;5135305;28;20043;-68
2022/04/15 07:31:14;;;;;;;11.23;5.78;;;12.10;72.40;;;;;;5135153;28;20042;-67
2022/04/15 07:33:39;;;;;;;8.48;5.15;;;12.10;72.00;;;;;;5135286;28;20024;-67
2022/04/15 07:36:31;;;;;;;10.48;5.75;;;12.20;71.60;;;;;;5135049;28;20073;-67
2022/04/15 07:38:51;;;;;;;10.25;5.55;;;12.20;71.50;;;;;;5134940;28;20091;-67
2022/04/15 07:41:16;;;;;;;9.23;5.65;;;12.20;71.40;;;;;;5134971;28;20062;-67
2022/04/15 07:43:42;;;;;;;10.77;6.07;;;12.30;71.40;;;;;;5134819;28;20052;-67
2022/04/15 07:46:08;;;;;;;9.23;5.32;;;12.30;71.20;;;;;;5134672;28;20034;-67
2022/04/15 07:48:34;;;;;;;8.10;5.10;;;12.30;70.90;;;;;;5134412;28;20020;-67
2022/04/15 07:50:59;;;;;;;10.00;5.32;;;12.30;70.60;;;;;;5134731;28;20430;-67
2022/04/15 07:53:25;;;;;;;9.32;5.10;;;12.30;70.50;;;;;;5134814;28;20020;-67
2022/04/15 07:55:51;;;;;;;8.55;5.50;;;12.30;70.60;;;;;;5134760;28;20016;-68
2022/04/15 07:58:18;;;;;;;9.60;5.13;;;12.30;70.60;;;;;;5133783;28;20019;-67
2022/04/15 08:00:44;;;;;;;10.07;4.97;;;12.30;70.40;;;;;;5133714;28;20022;-67
2022/04/15 08:03:09;;;;;;;8.18;4.75;;;12.40;70.00;;;;;;5134537;28;20035;-69
2022/04/15 08:05:35;;;;;;;9.93;5.57;;;12.40;69.90;;;;;;5134550;28;20023;-67
2022/04/15 08:08:01;;;;;;;8.88;4.90;;;12.40;69.90;;;;;;5134526;28;20016;-67
2022/04/15 08:10:26;;;;;;;6.93;4.60;;;12.50;69.70;;;;;;5134492;28;20392;-67
2022/04/15 08:12:52;;;;;;;7.93;4.45;;;12.50;69.50;;;;;;5134390;28;20050;-67
2022/04/15 08:15:18;;;;;;;6.25;4.40;;;12.60;69.50;;;;;;5134454;28;20392;-68
2022/04/15 08:17:43;;;;;;;7.38;4.53;;;12.60;69.30;;;;;;5134337;28;20024;-67
2022/04/15 08:20:09;;;;;;;6.88;4.38;;;12.70;69.00;;;;;;5134292;28;20042;-67
2022/04/15 08:22:36;;;;;;;7.03;4.30;;;12.70;68.90;;;;;;5134202;28;20030;-66
2022/04/15 08:25:04;;;;;;;6.57;4.65;;;12.80;69.10;;;;;;5134282;28;20061;-67
2022/04/15 08:27:29;;;;;;;6.63;4.63;;;12.90;69.00;;;;;;5134128;28;20016;-67
2022/04/15 08:29:55;;;;;;;6.40;4.30;;;13.00;69.30;;;;;;5134124;28;20057;-67
2022/04/15 08:32:21;;;;;;;8.00;4.47;;;13.20;68.80;;;;;;5134069;28;20053;-67
2022/04/15 08:34:47;;;;;;;7.90;4.78;;;13.20;69.20;;;;;;5134150;28;20031;-67
2022/04/15 08:37:13;;;;;;;8.05;4.05;;;13.10;67.00;;;;;;5134063;28;20023;-67
2022/04/15 08:39:40;;;;;;;5.68;3.78;;;13.20;68.40;;;;;;5134045;28;20023;-67
2022/04/15 08:42:09;;;;;;;7.28;3.75;;;13.30;68.00;;;;;;5134006;28;20015;-67
2022/04/15 08:44:34;;;;;;;6.57;4.45;;;13.40;67.20;;;;;;5133756;28;20047;-67
2022/04/15 08:47:02;;;;;;;5.20;4.05;;;13.50;66.30;;;;;;5133906;28;20062;-67
2022/04/15 08:49:29;;;;;;;7.55;3.97;;;13.60;67.00;;;;;;5133927;28;20019;-67
2022/04/15 08:51:55;;;;;;;10.02;4.40;;;13.80;66.40;;;;;;5133857;28;20079;-68
2022/04/15 08:54:21;;;;;;;7.20;4.32;;;13.80;66.00;;;;;;5133842;28;20079;-67
2022/04/15 08:56:48;;;;;;;6.47;4.28;;;13.90;66.20;;;;;;5133809;28;20024;-67
2022/04/15 08:59:16;;;;;;;6.80;4.80;;;14.00;66.00;;;;;;5133809;28;20027;-67
2022/04/15 09:01:43;;;;;;;7.05;4.22;;;14.10;65.20;;;;;;5133870;28;20035;-68
2022/04/15 09:04:09;;;;;;;6.90;4.13;;;14.00;64.40;;;;;;5133623;28;20023;-67
2022/04/15 09:06:35;;;;;;;7.95;4.53;;;14.00;64.90;;;;;;5133648;28;20042;-67
2022/04/15 09:09:11;;;;;;;6.82;4.15;;;14.00;64.20;;;;;;5133658;28;20054;-68
2022/04/15 09:11:38;;;;;;;6.57;4.30;;;14.00;64.40;;;;;;5133671;28;20031;-67
2022/04/15 09:14:14;;;;;;;6.85;4.68;;;14.00;64.20;;;;;;5133671;28;20019;-67
2022/04/15 09:16:45;;;;;;;7.07;4.18;;;14.00;64.30;;;;;;5133572;28;20050;-68
2022/04/15 09:19:12;;;;;;;6.18;4.10;;;14.00;64.50;;;;;;5133678;28;20035;-67
2022/04/15 09:21:39;;;;;;;9.15;4.90;;;13.90;64.50;;;;;;5133551;28;20087;-68
2022/04/15 09:24:07;;;;;;;7.88;4.50;;;14.00;64.80;;;;;;5133572;28;20109;-67
2022/04/15 09:26:33;;;;;;;7.78;3.90;;;14.10;65.30;;;;;;5133720;28;20061;-67
2022/04/15 09:28:59;;;;;;;6.43;4.25;;;14.20;64.50;;;;;;5133381;28;20028;-67
2022/04/15 09:31:25;;;;;;;8.35;4.53;;;14.20;64.30;;;;;;5133380;28;20047;-67
2022/04/15 09:33:56;;;;;;;5.75;3.85;;;14.10;63.50;;;;;;5133655;28;20031;-67
2022/04/15 09:36:30;;;;;;;7.13;4.40;;;14.20;63.90;;;;;;5133537;28;20046;-68
2022/04/15 09:38:58;;;;;;;6.43;4.28;;;14.10;64.50;;;;;;5133493;28;20019;-67
2022/04/15 09:41:25;;;;;;;6.57;4.28;;;14.20;64.50;;;;;;5133367;28;20031;-68
2022/04/15 09:43:54;;;;;;;5.70;4.28;;;14.20;63.90;;;;;;5133191;28;20052;-67
2022/04/15 09:46:21;;;;;;;6.60;3.97;;;14.20;63.30;;;;;;5133328;28;20081;-67
2022/04/15 09:49:07;;;;;;;5.57;3.90;;;14.20;64.00;;;;;;5133388;28;20046;-67
2022/04/15 09:51:44;;;;;;;4.82;3.78;;;14.10;63.40;;;;;;5133249;28;20023;-67
2022/04/15 09:54:28;;;;;;;5.88;4.30;;;14.20;63.90;;;;;;5133402;28;20019;-67
2022/04/15 09:56:59;;;;;;;6.10;3.92;;;14.20;64.00;;;;;;5133185;28;20031;-67
2022/04/15 09:59:27;;;;;;;5.80;4.00;;;14.00;64.40;;;;;;5133270;28;20045;-68
2022/04/15 10:01:57;;;;;;;6.30;4.05;;;14.00;64.70;;;;;;5133195;28;20034;-68
2022/04/15 10:04:28;;;;;;;5.82;3.70;;;14.10;64.50;;;;;;5133384;28;20028;-68
2022/04/15 10:06:54;;;;;;;6.22;3.55;;;14.10;64.50;;;;;;5133290;28;20028;-68
2022/04/15 10:09:21;;;;;;;6.03;4.00;;;14.10;63.80;;;;;;5133252;28;20023;-68
2022/04/15 10:11:48;;;;;;;7.72;4.20;;;14.10;63.70;;;;;;5136333;28;20034;-68
2022/04/15 10:14:16;;;;;;;8.50;5.05;;;14.00;64.20;;;;;;5136767;28;20023;-68
2022/04/15 10:16:43;;;;;;;7.60;3.92;;;14.00;65.40;;;;;;5135706;28;20438;-68
2022/04/15 10:19:10;;;;;;;5.70;3.83;;;13.90;64.90;;;;;;5136705;28;20026;-68
2022/04/15 10:21:49;;;;;;;6.55;4.03;;;13.90;65.00;;;;;;5136600;28;20038;-68
2022/04/15 10:24:15;;;;;;;6.05;3.92;;;13.90;65.00;;;;;;5136648;28;20031;-68
2022/04/15 10:26:45;;;;;;;6.88;3.83;;;13.90;65.10;;;;;;5136534;28;20032;-68
2022/04/15 10:29:12;;;;;;;5.40;3.47;;;13.90;65.50;;;;;;5136472;28;20034;-68
2022/04/15 10:31:54;;;;;;;7.97;4.07;;;13.90;65.40;;;;;;5136374;28;20027;-68
2022/04/15 10:34:21;;;;;;;6.43;4.00;;;14.00;65.60;;;;;;5136450;28;20039;-68
2022/04/15 10:36:52;;;;;;;5.90;3.78;;;14.00;65.20;;;;;;5136239;28;20023;-68
2022/04/15 10:39:23;;;;;;;6.03;3.47;;;14.10;64.90;;;;;;5136529;28;20030;-68
2022/04/15 10:41:50;;;;;;;4.60;3.70;;;14.30;64.60;;;;;;5136206;28;20028;-68
2022/04/15 10:44:39;;;;;;;5.88;3.85;;;14.30;64.40;;;;;;5136013;28;20039;-68
2022/04/15 10:47:17;;;;;;;6.18;3.65;;;14.40;63.50;;;;;;5136208;28;20020;-68
2022/04/15 10:50:04;;;;;;;6.70;4.07;;;14.20;63.30;;;;;;5136032;28;20024;-68
2022/04/15 10:52:33;;;;;;;5.70;3.80;;;14.20;63.40;;;;;;5136133;28;20053;-68
2022/04/15 10:55:06;;;;;;;5.35;3.65;;;14.00;63.70;;;;;;5136007;28;20020;-68
2022/04/15 10:57:40;;;;;;;6.78;3.92;;;14.00;64.40;;;;;;5135989;28;20034;-68
2022/04/15 11:03:24;;;;;;;6.22;4.07;;;13.90;64.40;;;;;;5135962;28;20057;-68
2022/04/15 11:05:52;;;;;;;5.75;3.90;;;13.70;64.30;;;;;;5128576;28;20047;-68
2022/04/15 11:08:20;;;;;;;5.25;3.63;;;13.60;65.90;;;;;;5135712;28;20055;-68
2022/04/15 11:10:55;;;;;;;7.60;4.10;;;13.60;65.60;;;;;;5135563;28;20051;-68
2022/04/15 11:13:27;;;;;;;6.60;4.00;;;13.60;65.40;;;;;;5135697;28;20024;-68
2022/04/15 11:16:10;;;;;;;6.33;3.97;;;13.70;65.40;;;;;;5135752;27;20049;-68
2022/04/15 11:19:00;;;;;;;7.22;4.00;;;13.70;65.10;;;;;;5135590;28;20020;-68
2022/04/15 11:21:29;;;;;;;8.15;4.53;;;13.80;65.00;;;;;;5134523;28;20028;-68
2022/04/15 11:24:01;;;;;;;7.28;5.03;;;13.80;65.00;;;;;;5135308;28;20027;-68
2022/04/15 11:26:28;;;;;;;6.57;4.67;;;13.80;64.80;;;;;;5134472;28;20034;-67
2022/04/15 11:28:56;;;;;;;8.07;4.78;;;13.70;65.30;;;;;;5134128;28;20032;-67
2022/04/15 11:31:27;;;;;;;8.70;5.07;;;13.70;65.10;;;;;;5135214;28;20024;-67
2022/04/15 11:33:55;;;;;;;9.40;4.93;;;13.70;65.10;;;;;;5135245;28;20024;-68
2022/04/15 11:36:22;;;;;;;7.80;5.03;;;13.50;65.10;;;;;;5135247;28;20024;-68
2022/04/15 11:38:49;;;;;;;7.43;4.45;;;13.50;64.80;;;;;;5135148;28;20027;-68
2022/04/15 11:41:17;;;;;;;8.10;4.55;;;13.40;65.50;;;;;;5135014;28;20040;-68
2022/04/15 11:43:48;;;;;;;7.15;4.63;;;13.40;66.30;;;;;;5134780;28;20095;-68
2022/04/15 11:46:13;;;;;;;9.45;4.82;;;13.60;66.10;;;;;;5135116;28;20049;-68
2022/04/15 11:48:39;;;;;;;8.25;5.00;;;13.70;65.80;;;;;;5134842;28;20032;-67
2022/04/15 11:51:04;;;;;;;6.57;4.70;;;13.80;66.50;;;;;;5134781;28;20030;-68
2022/04/15 11:53:30;;;;;;;8.90;5.18;;;13.90;66.20;;;;;;5134860;28;20053;-68
2022/04/15 11:55:58;;;;;;;7.38;4.78;;;13.90;65.40;;;;;;5134835;28;20041;-67
2022/04/15 11:58:31;;;;;;;8.48;5.13;;;14.00;65.10;;;;;;5134914;28;20075;-67
2022/04/15 12:00:58;;;;;;;7.75;4.75;;;14.00;64.40;;;;;;5134915;28;20019;-68
2022/04/15 12:03:25;;;;;;;7.38;4.82;;;14.00;64.40;;;;;;5133599;28;20015;-68
2022/04/15 12:05:54;;;;;;;6.55;4.68;;;14.00;64.20;;;;;;5134739;28;20024;-68
2022/04/15 12:08:20;;;;;;;6.40;4.80;;;14.10;64.10;;;;;;5134771;28;20063;-67
2022/04/15 12:10:47;;;;;;;9.82;4.97;;;14.20;64.10;;;;;;5134523;28;20024;-68
2022/04/15 12:13:14;;;;;;;7.65;5.03;;;14.30;64.00;;;;;;5134505;28;20060;-67
2022/04/15 12:15:40;;;;;;;8.90;5.10;;;14.30;63.60;;;;;;5134446;28;20015;-68
2022/04/15 12:18:06;;;;;;;8.63;5.95;;;14.30;63.30;;;;;;5134401;28;20122;-68
2022/04/15 12:20:37;;;;;;;8.52;5.43;;;14.30;63.90;;;;;;5134360;28;20106;-69
2022/04/15 12:23:04;;;;;;;7.32;5.32;;;14.20;62.90;;;;;;5133268;28;20028;-68
2022/04/15 12:29:47;;;;;;;9.00;5.50;;;14.10;63.70;;;;;;5134257;28;20038;-70
2022/04/15 12:30:59;;;;;;;8.73;5.88;;;14.10;63.90;;;;;;5134092;28;20042;-69
2022/04/15 12:33:25;;;;;;;9.82;6.68;;;14.10;63.80;;;;;;5133702;28;20024;-69
2022/04/15 12:36:02;;;;;;;8.93;6.35;;;14.10;64.50;;;;;;5134097;28;20020;-69
2022/04/15 12:38:29;;;;;;;9.05;6.45;;;14.10;65.70;;;;;;5134194;28;20023;-70
2022/04/15 12:41:09;;;;;;;9.32;5.80;;;14.10;64.50;;;;;;5134048;27;20031;-68
2022/04/15 12:43:35;;;;;;;10.60;6.15;;;14.10;64.70;;;;;;5133861;28;20067;-69
2022/04/15 12:46:01;;;;;;;10.85;6.40;;;14.10;64.50;;;;;;5133958;28;20028;-69